sensor_id;sensor_type;location;lat;lon;timestamp;P1;durP1;ratioP1;P2;durP2;ratioP2
14892;SDS011;7538;53.626;9.906;2023-04-30T00:00:22;9.50;;;4.13;;
14892;SDS011;7538;53.626;9.906;2023-04-30T00:02:48;8.10;;;4.03;;
14892;SDS011;7538;53.626;9.906;2023-04-30T00:05:15;7.50;;;3.30;;
14892;SDS011;7538;53.626;9.906;2023-04-30T00:07:42;9.67;;;3.97;;
14892;SDS011;7538;53.626;9.906;2023-04-30T00:10:09;12.43;;;3.90;;
14892;SDS011;7538;53.626;9.906;2023-04-30T00:12:36;11.07;;;3.97;;
14892;SDS011;7538;53.626;9.906;2023-04-30T00:15:05;8.10;;;3.80;;
14892;SDS011;7538;53.626;9.906;2023-04-30T00:17:32;6.27;;;3.97;;
14892;SDS011;7538;53.626;9.906;2023-04-30T00:19:59;10.53;;;4.00;;
14892;SDS011;7538;53.626;9.906;2023-04-30T00:22:26;8.83;;;4.10;;
14892;SDS011;7538;53.626;9.906;2023-04-30T00:24:53;9.03;;;3.27;;
14892;SDS011;7538;53.626;9.906;2023-04-30T00:27:19;10.73;;;3.87;;
14892;SDS011;7538;53.626;9.906;2023-04-30T00:29:46;7.60;;;3.70;;
14892;SDS011;7538;53.626;9.906;2023-04-30T00:32:14;7.60;;;4.30;;
14892;SDS011;7538;53.626;9.906;2023-04-30T00:34:41;10.33;;;4.20;;
14892;SDS011;7538;53.626;9.906;2023-04-30T00:37:08;7.47;;;3.43;;
14892;SDS011;7538;53.626;9.906;2023-04-30T00:39:35;9.90;;;4.00;;
14892;SDS011;7538;53.626;9.906;2023-04-30T00:42:02;8.07;;;3.77;;
14892;SDS011;7538;53.626;9.906;2023-04-30T00:44:29;7.43;;;3.30;;
14892;SDS011;7538;53.626;9.906;2023-04-30T00:46:56;7.37;;;3.70;;
14892;SDS011;7538;53.626;9.906;2023-04-30T00:49:24;9.80;;;4.47;;
14892;SDS011;7538;53.626;9.906;2023-04-30T00:51:51;6.80;;;3.67;;
14892;SDS011;7538;53.626;9.906;2023-04-30T00:54:19;10.17;;;3.80;;
14892;SDS011;7538;53.626;9.906;2023-04-30T00:56:46;8.17;;;3.97;;
14892;SDS011;7538;53.626;9.906;2023-04-30T00:59:13;9.13;;;4.07;;
14892;SDS011;7538;53.626;9.906;2023-04-30T01:01:40;9.87;;;4.03;;
14892;SDS011;7538;53.626;9.906;2023-04-30T01:04:07;7.07;;;3.47;;
14892;SDS011;7538;53.626;9.906;2023-04-30T01:06:36;7.90;;;3.77;;
14892;SDS011;7538;53.626;9.906;2023-04-30T01:09:03;7.60;;;4.30;;
14892;SDS011;7538;53.626;9.906;2023-04-30T01:11:32;7.50;;;4.30;;
14892;SDS011;7538;53.626;9.906;2023-04-30T01:14:11;6.03;;;3.40;;
14892;SDS011;7538;53.626;9.906;2023-04-30T01:16:45;8.10;;;3.60;;
14892;SDS011;7538;53.626;9.906;2023-04-30T01:19:21;9.43;;;4.30;;
14892;SDS011;7538;53.626;9.906;2023-04-30T01:22:01;7.70;;;3.70;;
14892;SDS011;7538;53.626;9.906;2023-04-30T01:24:37;8.10;;;4.10;;
14892;SDS011;7538;53.626;9.906;2023-04-30T01:27:20;8.73;;;4.20;;
14892;SDS011;7538;53.626;9.906;2023-04-30T01:29:54;7.33;;;3.83;;
14892;SDS011;7538;53.626;9.906;2023-04-30T01:32:22;7.13;;;4.30;;
14892;SDS011;7538;53.626;9.906;2023-04-30T01:34:49;7.87;;;4.10;;
14892;SDS011;7538;53.626;9.906;2023-04-30T01:37:19;8.43;;;4.07;;
14892;SDS011;7538;53.626;9.906;2023-04-30T01:39:56;12.97;;;4.60;;
14892;SDS011;7538;53.626;9.906;2023-04-30T01:42:35;5.90;;;3.90;;
14892;SDS011;7538;53.626;9.906;2023-04-30T01:45:12;9.07;;;3.93;;
14892;SDS011;7538;53.626;9.906;2023-04-30T01:47:49;11.10;;;4.53;;
14892;SDS011;7538;53.626;9.906;2023-04-30T01:50:24;6.07;;;4.20;;
14892;SDS011;7538;53.626;9.906;2023-04-30T01:52:58;4.77;;;3.77;;
14892;SDS011;7538;53.626;9.906;2023-04-30T01:55:27;6.10;;;3.80;;
14892;SDS011;7538;53.626;9.906;2023-04-30T01:58:00;9.90;;;3.70;;
14892;SDS011;7538;53.626;9.906;2023-04-30T02:00:31;7.37;;;4.20;;
14892;SDS011;7538;53.626;9.906;2023-04-30T02:02:59;6.13;;;3.63;;
14892;SDS011;7538;53.626;9.906;2023-04-30T02:05:25;8.07;;;3.93;;
14892;SDS011;7538;53.626;9.906;2023-04-30T02:07:52;5.07;;;4.10;;
14892;SDS011;7538;53.626;9.906;2023-04-30T02:10:20;8.00;;;4.13;;
14892;SDS011;7538;53.626;9.906;2023-04-30T02:12:48;6.37;;;3.80;;
14892;SDS011;7538;53.626;9.906;2023-04-30T02:15:15;9.53;;;4.20;;
14892;SDS011;7538;53.626;9.906;2023-04-30T02:17:43;7.47;;;3.83;;
14892;SDS011;7538;53.626;9.906;2023-04-30T02:20:10;8.37;;;4.53;;
14892;SDS011;7538;53.626;9.906;2023-04-30T02:22:37;7.07;;;4.47;;
14892;SDS011;7538;53.626;9.906;2023-04-30T02:25:04;8.80;;;4.83;;
14892;SDS011;7538;53.626;9.906;2023-04-30T02:27:31;6.30;;;4.50;;
14892;SDS011;7538;53.626;9.906;2023-04-30T02:29:59;9.10;;;4.70;;
14892;SDS011;7538;53.626;9.906;2023-04-30T02:32:26;7.83;;;4.87;;
14892;SDS011;7538;53.626;9.906;2023-04-30T02:34:54;7.93;;;4.53;;
14892;SDS011;7538;53.626;9.906;2023-04-30T02:37:21;10.00;;;4.83;;
14892;SDS011;7538;53.626;9.906;2023-04-30T02:39:48;10.33;;;5.50;;
14892;SDS011;7538;53.626;9.906;2023-04-30T02:42:16;7.63;;;4.93;;
14892;SDS011;7538;53.626;9.906;2023-04-30T02:44:43;8.67;;;4.67;;
14892;SDS011;7538;53.626;9.906;2023-04-30T02:47:09;8.77;;;4.60;;
14892;SDS011;7538;53.626;9.906;2023-04-30T02:49:36;9.70;;;4.57;;
14892;SDS011;7538;53.626;9.906;2023-04-30T02:52:05;10.03;;;4.87;;
14892;SDS011;7538;53.626;9.906;2023-04-30T02:54:33;7.40;;;4.43;;
14892;SDS011;7538;53.626;9.906;2023-04-30T02:57:00;8.33;;;4.57;;
14892;SDS011;7538;53.626;9.906;2023-04-30T02:59:27;9.97;;;5.00;;
14892;SDS011;7538;53.626;9.906;2023-04-30T03:01:54;8.27;;;4.70;;
14892;SDS011;7538;53.626;9.906;2023-04-30T03:04:21;10.00;;;4.73;;
14892;SDS011;7538;53.626;9.906;2023-04-30T03:06:47;8.40;;;4.67;;
14892;SDS011;7538;53.626;9.906;2023-04-30T03:09:16;8.77;;;4.70;;
14892;SDS011;7538;53.626;9.906;2023-04-30T03:11:43;10.37;;;4.73;;
14892;SDS011;7538;53.626;9.906;2023-04-30T03:14:10;7.97;;;4.60;;
14892;SDS011;7538;53.626;9.906;2023-04-30T03:16:36;8.87;;;4.50;;
14892;SDS011;7538;53.626;9.906;2023-04-30T03:19:03;6.23;;;4.70;;
14892;SDS011;7538;53.626;9.906;2023-04-30T03:21:30;9.70;;;4.47;;
14892;SDS011;7538;53.626;9.906;2023-04-30T03:23:57;7.90;;;5.00;;
14892;SDS011;7538;53.626;9.906;2023-04-30T03:26:25;8.57;;;4.17;;
14892;SDS011;7538;53.626;9.906;2023-04-30T03:28:53;11.40;;;4.70;;
14892;SDS011;7538;53.626;9.906;2023-04-30T03:31:20;6.07;;;4.43;;
14892;SDS011;7538;53.626;9.906;2023-04-30T03:33:46;7.93;;;4.00;;
14892;SDS011;7538;53.626;9.906;2023-04-30T03:36:13;6.37;;;4.00;;
14892;SDS011;7538;53.626;9.906;2023-04-30T03:38:40;5.53;;;3.60;;
14892;SDS011;7538;53.626;9.906;2023-04-30T03:41:07;8.77;;;4.37;;
14892;SDS011;7538;53.626;9.906;2023-04-30T03:43:35;9.93;;;3.83;;
14892;SDS011;7538;53.626;9.906;2023-04-30T03:46:02;7.70;;;4.60;;
14892;SDS011;7538;53.626;9.906;2023-04-30T03:48:29;8.70;;;4.40;;
14892;SDS011;7538;53.626;9.906;2023-04-30T03:50:56;7.87;;;4.50;;
14892;SDS011;7538;53.626;9.906;2023-04-30T03:53:23;10.47;;;4.70;;
14892;SDS011;7538;53.626;9.906;2023-04-30T03:55:50;7.83;;;4.67;;
14892;SDS011;7538;53.626;9.906;2023-04-30T03:58:18;6.30;;;4.10;;
14892;SDS011;7538;53.626;9.906;2023-04-30T04:00:47;7.60;;;4.60;;
14892;SDS011;7538;53.626;9.906;2023-04-30T04:03:14;8.07;;;4.47;;
14892;SDS011;7538;53.626;9.906;2023-04-30T04:05:41;7.30;;;4.53;;
14892;SDS011;7538;53.626;9.906;2023-04-30T04:08:08;11.80;;;5.27;;
14892;SDS011;7538;53.626;9.906;2023-04-30T04:10:35;7.17;;;4.43;;
14892;SDS011;7538;53.626;9.906;2023-04-30T04:13:02;9.83;;;4.90;;
14892;SDS011;7538;53.626;9.906;2023-04-30T04:15:29;7.67;;;4.33;;
14892;SDS011;7538;53.626;9.906;2023-04-30T04:17:57;9.43;;;4.47;;
14892;SDS011;7538;53.626;9.906;2023-04-30T04:20:24;9.80;;;5.10;;
14892;SDS011;7538;53.626;9.906;2023-04-30T04:22:51;9.77;;;5.20;;
14892;SDS011;7538;53.626;9.906;2023-04-30T04:25:18;10.47;;;4.73;;
14892;SDS011;7538;53.626;9.906;2023-04-30T04:27:49;8.37;;;4.37;;
14892;SDS011;7538;53.626;9.906;2023-04-30T04:30:16;8.53;;;4.40;;
14892;SDS011;7538;53.626;9.906;2023-04-30T04:32:43;6.67;;;3.83;;
14892;SDS011;7538;53.626;9.906;2023-04-30T04:35:13;9.07;;;4.57;;
14892;SDS011;7538;53.626;9.906;2023-04-30T04:37:40;7.07;;;4.67;;
14892;SDS011;7538;53.626;9.906;2023-04-30T04:40:08;6.23;;;4.27;;
14892;SDS011;7538;53.626;9.906;2023-04-30T04:42:35;7.60;;;4.80;;
14892;SDS011;7538;53.626;9.906;2023-04-30T04:45:03;7.83;;;4.37;;
14892;SDS011;7538;53.626;9.906;2023-04-30T04:47:31;9.00;;;4.63;;
14892;SDS011;7538;53.626;9.906;2023-04-30T04:49:58;7.13;;;4.43;;
14892;SDS011;7538;53.626;9.906;2023-04-30T04:52:27;9.27;;;4.70;;
14892;SDS011;7538;53.626;9.906;2023-04-30T04:54:53;5.23;;;3.90;;
14892;SDS011;7538;53.626;9.906;2023-04-30T04:57:20;8.27;;;5.23;;
14892;SDS011;7538;53.626;9.906;2023-04-30T04:59:47;9.07;;;5.20;;
14892;SDS011;7538;53.626;9.906;2023-04-30T05:02:14;7.03;;;4.67;;
14892;SDS011;7538;53.626;9.906;2023-04-30T05:04:41;9.03;;;4.43;;
14892;SDS011;7538;53.626;9.906;2023-04-30T05:07:08;7.87;;;4.17;;
14892;SDS011;7538;53.626;9.906;2023-04-30T05:09:36;8.37;;;5.03;;
14892;SDS011;7538;53.626;9.906;2023-04-30T05:12:03;8.70;;;4.77;;
14892;SDS011;7538;53.626;9.906;2023-04-30T05:14:30;5.90;;;4.50;;
14892;SDS011;7538;53.626;9.906;2023-04-30T05:16:57;8.50;;;5.63;;
14892;SDS011;7538;53.626;9.906;2023-04-30T05:19:24;10.33;;;6.30;;
14892;SDS011;7538;53.626;9.906;2023-04-30T05:21:51;11.00;;;5.93;;
14892;SDS011;7538;53.626;9.906;2023-04-30T05:24:17;11.23;;;6.17;;
14892;SDS011;7538;53.626;9.906;2023-04-30T05:26:46;10.17;;;5.83;;
14892;SDS011;7538;53.626;9.906;2023-04-30T05:29:12;10.27;;;6.20;;
14892;SDS011;7538;53.626;9.906;2023-04-30T05:31:39;10.40;;;5.70;;
14892;SDS011;7538;53.626;9.906;2023-04-30T05:34:06;9.83;;;5.53;;
14892;SDS011;7538;53.626;9.906;2023-04-30T05:36:33;11.27;;;5.80;;
14892;SDS011;7538;53.626;9.906;2023-04-30T05:39:00;7.80;;;4.90;;
14892;SDS011;7538;53.626;9.906;2023-04-30T05:41:27;7.03;;;4.60;;
14892;SDS011;7538;53.626;9.906;2023-04-30T05:43:55;8.93;;;4.65;;
14892;SDS011;7538;53.626;9.906;2023-04-30T05:46:22;8.02;;;4.30;;
14892;SDS011;7538;53.626;9.906;2023-04-30T05:48:49;9.07;;;4.22;;
14892;SDS011;7538;53.626;9.906;2023-04-30T05:51:15;8.23;;;4.50;;
14892;SDS011;7538;53.626;9.906;2023-04-30T05:53:42;9.32;;;4.03;;
14892;SDS011;7538;53.626;9.906;2023-04-30T05:56:09;9.45;;;4.20;;
14892;SDS011;7538;53.626;9.906;2023-04-30T05:58:36;8.65;;;3.95;;
14892;SDS011;7538;53.626;9.906;2023-04-30T06:01:05;6.72;;;3.63;;
14892;SDS011;7538;53.626;9.906;2023-04-30T06:03:35;6.22;;;3.72;;
14892;SDS011;7538;53.626;9.906;2023-04-30T06:06:02;5.25;;;3.40;;
14892;SDS011;7538;53.626;9.906;2023-04-30T06:08:29;6.15;;;3.53;;
14892;SDS011;7538;53.626;9.906;2023-04-30T06:10:56;5.82;;;3.00;;
14892;SDS011;7538;53.626;9.906;2023-04-30T06:13:23;8.23;;;3.20;;
14892;SDS011;7538;53.626;9.906;2023-04-30T06:15:50;7.03;;;3.13;;
14892;SDS011;7538;53.626;9.906;2023-04-30T06:18:18;7.82;;;3.63;;
14892;SDS011;7538;53.626;9.906;2023-04-30T06:20:45;6.00;;;3.22;;
14892;SDS011;7538;53.626;9.906;2023-04-30T06:23:12;5.15;;;3.33;;
14892;SDS011;7538;53.626;9.906;2023-04-30T06:25:39;6.10;;;3.10;;
14892;SDS011;7538;53.626;9.906;2023-04-30T06:28:06;7.95;;;3.38;;
14892;SDS011;7538;53.626;9.906;2023-04-30T06:30:34;4.63;;;2.92;;
14892;SDS011;7538;53.626;9.906;2023-04-30T06:33:01;4.25;;;2.85;;
14892;SDS011;7538;53.626;9.906;2023-04-30T06:35:30;5.28;;;2.60;;
14892;SDS011;7538;53.626;9.906;2023-04-30T06:37:57;6.53;;;2.83;;
14892;SDS011;7538;53.626;9.906;2023-04-30T06:40:24;5.53;;;3.00;;
14892;SDS011;7538;53.626;9.906;2023-04-30T06:42:51;4.63;;;2.65;;
14892;SDS011;7538;53.626;9.906;2023-04-30T06:45:18;5.30;;;2.45;;
14892;SDS011;7538;53.626;9.906;2023-04-30T06:47:45;9.32;;;2.90;;
14892;SDS011;7538;53.626;9.906;2023-04-30T06:50:13;5.35;;;2.90;;
14892;SDS011;7538;53.626;9.906;2023-04-30T06:52:42;4.82;;;2.67;;
14892;SDS011;7538;53.626;9.906;2023-04-30T06:55:09;6.43;;;3.00;;
14892;SDS011;7538;53.626;9.906;2023-04-30T06:57:36;4.80;;;2.80;;
14892;SDS011;7538;53.626;9.906;2023-04-30T07:00:04;6.72;;;2.80;;
14892;SDS011;7538;53.626;9.906;2023-04-30T07:02:31;5.80;;;2.65;;
14892;SDS011;7538;53.626;9.906;2023-04-30T07:04:58;3.92;;;2.50;;
14892;SDS011;7538;53.626;9.906;2023-04-30T07:07:25;6.30;;;2.97;;
14892;SDS011;7538;53.626;9.906;2023-04-30T07:09:53;5.30;;;2.40;;
14892;SDS011;7538;53.626;9.906;2023-04-30T07:12:20;4.72;;;2.58;;
14892;SDS011;7538;53.626;9.906;2023-04-30T07:14:47;6.45;;;2.55;;
14892;SDS011;7538;53.626;9.906;2023-04-30T07:17:14;4.80;;;2.80;;
14892;SDS011;7538;53.626;9.906;2023-04-30T07:19:40;4.30;;;2.40;;
14892;SDS011;7538;53.626;9.906;2023-04-30T07:22:07;3.80;;;2.67;;
14892;SDS011;7538;53.626;9.906;2023-04-30T07:24:34;5.93;;;2.45;;
14892;SDS011;7538;53.626;9.906;2023-04-30T07:27:02;4.10;;;2.65;;
14892;SDS011;7538;53.626;9.906;2023-04-30T07:29:31;3.65;;;2.50;;
14892;SDS011;7538;53.626;9.906;2023-04-30T07:31:58;5.25;;;3.10;;
14892;SDS011;7538;53.626;9.906;2023-04-30T07:34:25;7.85;;;2.80;;
14892;SDS011;7538;53.626;9.906;2023-04-30T07:36:52;7.30;;;2.53;;
14892;SDS011;7538;53.626;9.906;2023-04-30T07:39:18;5.95;;;2.13;;
14892;SDS011;7538;53.626;9.906;2023-04-30T07:41:45;4.70;;;2.70;;
14892;SDS011;7538;53.626;9.906;2023-04-30T07:44:13;4.35;;;2.05;;
14892;SDS011;7538;53.626;9.906;2023-04-30T07:46:40;3.92;;;2.47;;
14892;SDS011;7538;53.626;9.906;2023-04-30T07:49:07;5.03;;;2.67;;
14892;SDS011;7538;53.626;9.906;2023-04-30T07:51:34;4.57;;;2.90;;
14892;SDS011;7538;53.626;9.906;2023-04-30T07:54:01;4.13;;;2.30;;
14892;SDS011;7538;53.626;9.906;2023-04-30T07:56:29;4.43;;;2.60;;
14892;SDS011;7538;53.626;9.906;2023-04-30T07:58:55;4.70;;;2.78;;
14892;SDS011;7538;53.626;9.906;2023-04-30T08:01:24;7.68;;;2.47;;
14892;SDS011;7538;53.626;9.906;2023-04-30T08:03:50;2.97;;;2.20;;
14892;SDS011;7538;53.626;9.906;2023-04-30T08:06:17;5.80;;;2.63;;
14892;SDS011;7538;53.626;9.906;2023-04-30T08:08:44;4.30;;;2.60;;
14892;SDS011;7538;53.626;9.906;2023-04-30T08:11:11;6.32;;;2.70;;
14892;SDS011;7538;53.626;9.906;2023-04-30T08:13:39;2.70;;;2.40;;
14892;SDS011;7538;53.626;9.906;2023-04-30T08:16:07;4.05;;;2.30;;
14892;SDS011;7538;53.626;9.906;2023-04-30T08:18:35;5.25;;;2.67;;
14892;SDS011;7538;53.626;9.906;2023-04-30T08:21:03;3.80;;;2.70;;
14892;SDS011;7538;53.626;9.906;2023-04-30T08:23:30;5.82;;;2.70;;
14892;SDS011;7538;53.626;9.906;2023-04-30T08:25:57;3.65;;;2.15;;
14892;SDS011;7538;53.626;9.906;2023-04-30T08:28:24;4.75;;;2.35;;
14892;SDS011;7538;53.626;9.906;2023-04-30T08:30:51;5.47;;;2.10;;
14892;SDS011;7538;53.626;9.906;2023-04-30T08:33:17;5.35;;;2.42;;
14892;SDS011;7538;53.626;9.906;2023-04-30T08:35:46;5.47;;;2.90;;
14892;SDS011;7538;53.626;9.906;2023-04-30T08:38:12;5.05;;;2.40;;
14892;SDS011;7538;53.626;9.906;2023-04-30T08:40:39;3.20;;;2.25;;
14892;SDS011;7538;53.626;9.906;2023-04-30T08:43:07;7.28;;;2.75;;
14892;SDS011;7538;53.626;9.906;2023-04-30T08:45:35;5.70;;;2.65;;
14892;SDS011;7538;53.626;9.906;2023-04-30T08:48:02;5.80;;;2.53;;
14892;SDS011;7538;53.626;9.906;2023-04-30T08:50:30;4.85;;;2.50;;
14892;SDS011;7538;53.626;9.906;2023-04-30T08:53:00;6.10;;;2.50;;
14892;SDS011;7538;53.626;9.906;2023-04-30T08:55:28;4.10;;;2.53;;
14892;SDS011;7538;53.626;9.906;2023-04-30T08:57:55;3.83;;;2.13;;
14892;SDS011;7538;53.626;9.906;2023-04-30T09:00:22;4.45;;;2.88;;
14892;SDS011;7538;53.626;9.906;2023-04-30T09:02:50;4.43;;;2.35;;
14892;SDS011;7538;53.626;9.906;2023-04-30T09:05:17;5.63;;;2.70;;
14892;SDS011;7538;53.626;9.906;2023-04-30T09:07:44;4.57;;;2.70;;
14892;SDS011;7538;53.626;9.906;2023-04-30T09:10:16;3.97;;;2.65;;
14892;SDS011;7538;53.626;9.906;2023-04-30T09:12:46;4.60;;;2.85;;
14892;SDS011;7538;53.626;9.906;2023-04-30T09:15:24;4.32;;;2.60;;
14892;SDS011;7538;53.626;9.906;2023-04-30T09:18:04;6.45;;;2.90;;
14892;SDS011;7538;53.626;9.906;2023-04-30T09:20:32;3.88;;;2.50;;
14892;SDS011;7538;53.626;9.906;2023-04-30T09:23:06;4.38;;;2.58;;
14892;SDS011;7538;53.626;9.906;2023-04-30T09:25:39;5.55;;;2.80;;
14892;SDS011;7538;53.626;9.906;2023-04-30T09:28:07;6.63;;;2.60;;
14892;SDS011;7538;53.626;9.906;2023-04-30T09:30:35;5.80;;;2.67;;
14892;SDS011;7538;53.626;9.906;2023-04-30T09:33:02;5.22;;;2.88;;
14892;SDS011;7538;53.626;9.906;2023-04-30T09:35:30;5.40;;;2.83;;
14892;SDS011;7538;53.626;9.906;2023-04-30T09:37:58;6.45;;;2.88;;
14892;SDS011;7538;53.626;9.906;2023-04-30T09:40:33;5.15;;;2.88;;
14892;SDS011;7538;53.626;9.906;2023-04-30T09:43:03;4.72;;;2.80;;
14892;SDS011;7538;53.626;9.906;2023-04-30T09:45:39;7.32;;;2.97;;
14892;SDS011;7538;53.626;9.906;2023-04-30T09:48:07;6.18;;;2.90;;
14892;SDS011;7538;53.626;9.906;2023-04-30T09:50:38;5.28;;;2.92;;
14892;SDS011;7538;53.626;9.906;2023-04-30T09:53:06;6.38;;;2.78;;
14892;SDS011;7538;53.626;9.906;2023-04-30T09:55:34;4.78;;;2.83;;
14892;SDS011;7538;53.626;9.906;2023-04-30T09:58:04;6.43;;;2.80;;
14892;SDS011;7538;53.626;9.906;2023-04-30T10:00:32;4.88;;;2.65;;
14892;SDS011;7538;53.626;9.906;2023-04-30T10:03:00;4.38;;;2.90;;
14892;SDS011;7538;53.626;9.906;2023-04-30T10:05:32;4.30;;;2.75;;
14892;SDS011;7538;53.626;9.906;2023-04-30T10:08:03;5.32;;;2.65;;
14892;SDS011;7538;53.626;9.906;2023-04-30T10:10:32;3.38;;;2.50;;
14892;SDS011;7538;53.626;9.906;2023-04-30T10:13:02;3.72;;;2.47;;
14892;SDS011;7538;53.626;9.906;2023-04-30T10:15:35;4.03;;;2.78;;
14892;SDS011;7538;53.626;9.906;2023-04-30T10:18:06;5.72;;;2.63;;
14892;SDS011;7538;53.626;9.906;2023-04-30T10:20:38;5.03;;;2.60;;
14892;SDS011;7538;53.626;9.906;2023-04-30T10:23:06;7.38;;;2.90;;
14892;SDS011;7538;53.626;9.906;2023-04-30T10:25:33;6.35;;;2.83;;
14892;SDS011;7538;53.626;9.906;2023-04-30T10:28:07;5.00;;;2.47;;
14892;SDS011;7538;53.626;9.906;2023-04-30T10:30:34;3.72;;;2.70;;
14892;SDS011;7538;53.626;9.906;2023-04-30T10:33:04;5.55;;;2.45;;
14892;SDS011;7538;53.626;9.906;2023-04-30T10:35:38;3.92;;;2.72;;
14892;SDS011;7538;53.626;9.906;2023-04-30T10:38:12;4.80;;;2.80;;
14892;SDS011;7538;53.626;9.906;2023-04-30T10:40:44;4.50;;;2.38;;
14892;SDS011;7538;53.626;9.906;2023-04-30T10:43:13;4.95;;;2.70;;
14892;SDS011;7538;53.626;9.906;2023-04-30T10:45:43;4.00;;;2.05;;
14892;SDS011;7538;53.626;9.906;2023-04-30T10:48:10;3.85;;;2.47;;
14892;SDS011;7538;53.626;9.906;2023-04-30T10:50:40;7.22;;;2.50;;
14892;SDS011;7538;53.626;9.906;2023-04-30T10:53:11;4.65;;;2.97;;
14892;SDS011;7538;53.626;9.906;2023-04-30T10:55:44;5.50;;;2.95;;
14892;SDS011;7538;53.626;9.906;2023-04-30T10:58:23;5.32;;;3.15;;
14892;SDS011;7538;53.626;9.906;2023-04-30T11:00:59;4.07;;;2.63;;
14892;SDS011;7538;53.626;9.906;2023-04-30T11:03:27;6.03;;;2.90;;
14892;SDS011;7538;53.626;9.906;2023-04-30T11:05:55;6.47;;;2.90;;
14892;SDS011;7538;53.626;9.906;2023-04-30T11:08:31;6.80;;;2.80;;
14892;SDS011;7538;53.626;9.906;2023-04-30T11:10:59;4.50;;;2.63;;
14892;SDS011;7538;53.626;9.906;2023-04-30T11:13:34;4.65;;;2.83;;
14892;SDS011;7538;53.626;9.906;2023-04-30T11:16:05;3.30;;;2.55;;
14892;SDS011;7538;53.626;9.906;2023-04-30T11:18:32;5.22;;;2.90;;
14892;SDS011;7538;53.626;9.906;2023-04-30T11:20:58;4.35;;;2.92;;
14892;SDS011;7538;53.626;9.906;2023-04-30T11:23:27;8.20;;;2.78;;
14892;SDS011;7538;53.626;9.906;2023-04-30T11:25:54;4.45;;;2.45;;
14892;SDS011;7538;53.626;9.906;2023-04-30T11:28:25;4.35;;;2.92;;
14892;SDS011;7538;53.626;9.906;2023-04-30T11:30:57;20.73;;;8.98;;
14892;SDS011;7538;53.626;9.906;2023-04-30T11:33:25;9.32;;;5.82;;
14892;SDS011;7538;53.626;9.906;2023-04-30T11:35:53;7.88;;;4.60;;
14892;SDS011;7538;53.626;9.906;2023-04-30T11:38:21;4.28;;;3.70;;
14892;SDS011;7538;53.626;9.906;2023-04-30T11:40:52;5.78;;;3.20;;
14892;SDS011;7538;53.626;9.906;2023-04-30T11:43:20;4.55;;;2.60;;
14892;SDS011;7538;53.626;9.906;2023-04-30T11:45:59;4.13;;;2.92;;
14892;SDS011;7538;53.626;9.906;2023-04-30T11:48:31;3.55;;;2.22;;
14892;SDS011;7538;53.626;9.906;2023-04-30T11:50:59;7.78;;;3.47;;
14892;SDS011;7538;53.626;9.906;2023-04-30T11:53:28;4.80;;;3.50;;
14892;SDS011;7538;53.626;9.906;2023-04-30T11:56:00;6.95;;;3.55;;
14892;SDS011;7538;53.626;9.906;2023-04-30T11:58:32;4.57;;;3.38;;
14892;SDS011;7538;53.626;9.906;2023-04-30T12:01:00;5.82;;;3.58;;
14892;SDS011;7538;53.626;9.906;2023-04-30T12:03:27;6.25;;;3.45;;
14892;SDS011;7538;53.626;9.906;2023-04-30T12:05:55;5.90;;;3.17;;
14892;SDS011;7538;53.626;9.906;2023-04-30T12:08:22;4.68;;;2.97;;
14892;SDS011;7538;53.626;9.906;2023-04-30T12:10:49;4.63;;;2.90;;
14892;SDS011;7538;53.626;9.906;2023-04-30T12:13:15;4.75;;;2.85;;
14892;SDS011;7538;53.626;9.906;2023-04-30T12:15:42;4.93;;;3.20;;
14892;SDS011;7538;53.626;9.906;2023-04-30T12:18:24;6.65;;;3.15;;
14892;SDS011;7538;53.626;9.906;2023-04-30T12:20:51;3.65;;;2.85;;
14892;SDS011;7538;53.626;9.906;2023-04-30T12:23:19;6.10;;;3.05;;
14892;SDS011;7538;53.626;9.906;2023-04-30T12:25:46;7.55;;;3.10;;
14892;SDS011;7538;53.626;9.906;2023-04-30T12:28:13;7.45;;;3.17;;
14892;SDS011;7538;53.626;9.906;2023-04-30T12:30:41;6.30;;;3.08;;
14892;SDS011;7538;53.626;9.906;2023-04-30T12:33:09;6.18;;;3.50;;
14892;SDS011;7538;53.626;9.906;2023-04-30T12:35:40;6.72;;;2.97;;
14892;SDS011;7538;53.626;9.906;2023-04-30T12:38:08;4.72;;;2.80;;
14892;SDS011;7538;53.626;9.906;2023-04-30T12:40:35;6.85;;;2.83;;
14892;SDS011;7538;53.626;9.906;2023-04-30T12:43:03;7.15;;;2.95;;
14892;SDS011;7538;53.626;9.906;2023-04-30T12:45:44;5.50;;;3.13;;
14892;SDS011;7538;53.626;9.906;2023-04-30T12:48:13;6.55;;;2.72;;
14892;SDS011;7538;53.626;9.906;2023-04-30T12:50:45;5.28;;;2.75;;
14892;SDS011;7538;53.626;9.906;2023-04-30T12:53:13;5.88;;;2.17;;
14892;SDS011;7538;53.626;9.906;2023-04-30T12:55:40;5.85;;;2.63;;
14892;SDS011;7538;53.626;9.906;2023-04-30T12:58:08;3.60;;;2.45;;
14892;SDS011;7538;53.626;9.906;2023-04-30T13:00:42;4.07;;;3.08;;
14892;SDS011;7538;53.626;9.906;2023-04-30T13:03:13;5.63;;;2.95;;
14892;SDS011;7538;53.626;9.906;2023-04-30T13:05:45;5.22;;;2.88;;
14892;SDS011;7538;53.626;9.906;2023-04-30T13:08:13;4.93;;;2.88;;
14892;SDS011;7538;53.626;9.906;2023-04-30T13:10:40;5.63;;;3.40;;
14892;SDS011;7538;53.626;9.906;2023-04-30T13:13:07;5.80;;;2.50;;
14892;SDS011;7538;53.626;9.906;2023-04-30T13:15:35;4.32;;;2.83;;
14892;SDS011;7538;53.626;9.906;2023-04-30T13:18:02;4.30;;;2.55;;
14892;SDS011;7538;53.626;9.906;2023-04-30T13:20:31;6.05;;;2.50;;
14892;SDS011;7538;53.626;9.906;2023-04-30T13:22:59;5.68;;;2.47;;
14892;SDS011;7538;53.626;9.906;2023-04-30T13:25:26;3.17;;;2.58;;
14892;SDS011;7538;53.626;9.906;2023-04-30T13:27:53;5.68;;;2.80;;
14892;SDS011;7538;53.626;9.906;2023-04-30T13:30:21;3.35;;;2.63;;
14892;SDS011;7538;53.626;9.906;2023-04-30T13:32:48;3.17;;;2.47;;
14892;SDS011;7538;53.626;9.906;2023-04-30T13:35:15;7.63;;;3.47;;
14892;SDS011;7538;53.626;9.906;2023-04-30T13:37:42;6.88;;;3.38;;
14892;SDS011;7538;53.626;9.906;2023-04-30T13:40:11;4.55;;;3.08;;
14892;SDS011;7538;53.626;9.906;2023-04-30T13:42:40;3.63;;;2.70;;
14892;SDS011;7538;53.626;9.906;2023-04-30T13:45:08;4.53;;;2.83;;
14892;SDS011;7538;53.626;9.906;2023-04-30T13:47:35;4.97;;;2.75;;
14892;SDS011;7538;53.626;9.906;2023-04-30T13:50:03;5.38;;;2.78;;
14892;SDS011;7538;53.626;9.906;2023-04-30T13:52:30;3.75;;;2.53;;
14892;SDS011;7538;53.626;9.906;2023-04-30T13:54:57;5.40;;;2.90;;
14892;SDS011;7538;53.626;9.906;2023-04-30T13:57:25;4.90;;;2.88;;
14892;SDS011;7538;53.626;9.906;2023-04-30T13:59:54;6.03;;;2.95;;
14892;SDS011;7538;53.626;9.906;2023-04-30T14:02:21;5.85;;;2.33;;
14892;SDS011;7538;53.626;9.906;2023-04-30T14:04:47;4.40;;;3.22;;
14892;SDS011;7538;53.626;9.906;2023-04-30T14:07:14;6.78;;;3.47;;
14892;SDS011;7538;53.626;9.906;2023-04-30T14:09:41;4.75;;;2.78;;
14892;SDS011;7538;53.626;9.906;2023-04-30T14:12:08;3.45;;;2.92;;
14892;SDS011;7538;53.626;9.906;2023-04-30T14:14:36;6.10;;;2.72;;
14892;SDS011;7538;53.626;9.906;2023-04-30T14:17:03;5.50;;;3.28;;
14892;SDS011;7538;53.626;9.906;2023-04-30T14:19:30;6.43;;;3.22;;
14892;SDS011;7538;53.626;9.906;2023-04-30T14:21:57;6.72;;;3.00;;
14892;SDS011;7538;53.626;9.906;2023-04-30T14:24:24;5.03;;;2.70;;
14892;SDS011;7538;53.626;9.906;2023-04-30T14:26:52;6.53;;;2.92;;
14892;SDS011;7538;53.626;9.906;2023-04-30T14:29:19;4.82;;;2.88;;
14892;SDS011;7538;53.626;9.906;2023-04-30T14:31:47;4.80;;;2.75;;
14892;SDS011;7538;53.626;9.906;2023-04-30T14:34:14;4.35;;;2.38;;
14892;SDS011;7538;53.626;9.906;2023-04-30T14:36:41;5.25;;;2.58;;
14892;SDS011;7538;53.626;9.906;2023-04-30T14:39:08;4.82;;;2.60;;
14892;SDS011;7538;53.626;9.906;2023-04-30T14:41:35;5.32;;;3.28;;
14892;SDS011;7538;53.626;9.906;2023-04-30T14:44:02;5.25;;;2.75;;
14892;SDS011;7538;53.626;9.906;2023-04-30T14:46:29;6.68;;;3.30;;
14892;SDS011;7538;53.626;9.906;2023-04-30T14:49:00;8.02;;;3.80;;
14892;SDS011;7538;53.626;9.906;2023-04-30T14:51:28;5.82;;;3.47;;
14892;SDS011;7538;53.626;9.906;2023-04-30T14:53:56;4.25;;;2.45;;
14892;SDS011;7538;53.626;9.906;2023-04-30T14:56:23;4.45;;;2.70;;
14892;SDS011;7538;53.626;9.906;2023-04-30T14:58:50;3.05;;;2.75;;
14892;SDS011;7538;53.626;9.906;2023-04-30T15:01:17;5.30;;;2.78;;
14892;SDS011;7538;53.626;9.906;2023-04-30T15:03:44;5.43;;;3.13;;
14892;SDS011;7538;53.626;9.906;2023-04-30T15:06:12;3.88;;;2.80;;